Time;durP1;ratioP1;P1;durP2;ratioP2;P2;SDS_P1;SDS_P2;PMS_P1;PMS_P2;Temp;Humidity;BMP_temperature;BMP_pressure;BME280_temperature;BME280_humidity;BME280_pressure;Samples;Min_cycle;Max_cycle;Signal;HPM_P1;HPM_P2
2023/04/13 00:03:37;;;;;;;6.50;3.92;;;;;;;9.99;50.51;98747.09;7778962;32;40910;-85
2023/04/13 00:07:55;;;;;;;7.37;4.12;;;;;;;9.62;50.55;98753.28;7787254;32;38592;-86
2023/04/13 00:12:12;;;;;;;7.53;3.92;;;;;;;9.86;50.45;98750.53;7778382;32;37868;-87
2023/04/13 00:16:30;;;;;;;8.68;4.00;;;;;;;10.10;50.15;98740.38;7765327;32;39327;-88
2023/04/13 00:20:46;;;;;;;8.20;4.47;;;;;;;9.94;50.66;98741.72;7780279;32;40568;-80
2023/04/13 00:25:03;;;;;;;8.70;3.97;;;;;;;10.09;53.53;98733.34;7779285;32;37756;-86
2023/04/13 00:29:20;;;;;;;10.43;4.72;;;;;;;10.20;50.34;98730.47;7766190;32;37303;-87
2023/04/13 00:33:36;;;;;;;11.70;4.75;;;;;;;10.08;50.06;98728.97;7769454;32;39777;-87
2023/04/13 00:37:52;;;;;;;10.60;6.07;;;;;;;10.22;48.89;98722.81;7781590;32;40671;-87
2023/04/13 00:42:09;;;;;;;16.23;7.20;;;;;;;10.58;43.06;98717.62;7789741;32;37903;-87
2023/04/13 00:46:26;;;;;;;13.40;6.53;;;;;;;10.77;40.36;98717.56;7782235;32;37120;-86
2023/04/13 00:50:43;;;;;;;13.55;5.87;;;;;;;10.89;41.17;98708.94;7763944;32;39829;-86
2023/04/13 00:55:02;;;;;;;11.57;5.80;;;;;;;10.75;41.81;98719.00;7779836;32;40059;-87
2023/04/13 00:59:20;;;;;;;11.65;6.37;;;;;;;10.71;43.74;98713.34;7789286;32;38593;-87
2023/04/13 01:03:36;;;;;;;14.23;7.00;;;;;;;11.07;40.98;98720.84;7767689;32;38172;-86
2023/04/13 01:08:02;;;;;;;14.50;6.65;;;;;;;10.89;40.07;98717.91;7779031;32;39260;-87
2023/04/13 01:12:37;;;;;;;10.90;5.82;;;;;;;10.98;41.70;98728.13;7788879;32;40726;-86
2023/04/13 01:17:01;;;;;;;13.62;6.70;;;;;;;10.93;42.93;98720.03;7786654;32;37839;-87
2023/04/13 01:21:21;;;;;;;16.40;7.12;;;;;;;11.05;40.03;98706.72;7763357;32;37253;-87
2023/04/13 01:26:10;;;;;;;12.02;6.57;;;;;;;11.16;39.66;98694.53;7787916;32;38946;-87
2023/04/13 01:30:27;;;;;;;11.77;6.80;;;;;;;11.36;38.19;98700.69;7739924;32;39829;-88
2023/04/13 01:34:44;;;;;;;12.43;6.65;;;;;;;11.25;37.56;98698.16;7790461;32;38073;-88
2023/04/13 01:39:00;;;;;;;12.95;6.75;;;;;;;11.23;38.30;98702.31;7789007;32;37913;-87
2023/04/13 01:43:18;;;;;;;14.52;6.70;;;;;;;11.32;37.84;98705.13;7782886;32;40504;-87
2023/04/13 01:47:36;;;;;;;14.80;6.45;;;;;;;11.24;38.15;98714.81;7779547;32;39953;-87
2023/04/13 01:51:55;;;;;;;12.18;6.72;;;;;;;10.96;39.46;98703.88;7793185;32;38638;-88
2023/04/13 01:56:12;;;;;;;14.27;6.82;;;;;;;11.39;38.43;98713.72;7791719;32;36871;-86
2023/04/13 02:00:35;;;;;;;13.20;6.62;;;;;;;11.05;40.37;98712.16;7791072;32;39256;-87
2023/04/13 02:04:52;;;;;;;12.07;6.35;;;;;;;11.27;40.24;98704.09;7765984;32;39622;-87
2023/04/13 02:09:08;;;;;;;17.40;6.50;;;;;;;11.23;40.25;98708.56;7765873;32;38034;-87
2023/04/13 02:13:24;;;;;;;12.27;6.43;;;;;;;11.17;40.55;98714.41;7783237;32;37988;-87
2023/04/13 02:17:43;;;;;;;11.60;5.53;;;;;;;11.09;44.17;98702.28;7779257;32;39247;-87
2023/04/13 02:22:00;;;;;;;10.88;5.78;;;;;;;10.82;45.12;98706.59;7783330;32;40580;-85
2023/04/13 02:26:17;;;;;;;12.63;5.68;;;;;;;10.41;47.62;98718.16;7765877;32;37887;-88
2023/04/13 02:30:33;;;;;;;9.73;5.30;;;;;;;10.70;46.73;98707.06;7782600;32;37483;-87
2023/04/13 02:34:50;;;;;;;11.32;5.22;;;;;;;10.70;46.89;98707.06;7776570;32;38972;-87
2023/04/13 02:39:06;;;;;;;11.23;6.18;;;;;;;10.78;47.05;98712.91;7773635;32;39892;-86
2023/04/13 02:43:23;;;;;;;10.57;5.40;;;;;;;10.74;46.02;98711.91;7792260;32;38046;-87
2023/04/13 02:47:39;;;;;;;12.37;6.12;;;;;;;10.46;47.24;98707.19;7788038;32;37195;-88
2023/04/13 02:51:55;;;;;;;16.17;6.28;;;;;;;10.27;46.10;98709.91;7792055;32;39379;-79
2023/04/13 02:56:13;;;;;;;10.82;5.82;;;;;;;10.74;44.75;98698.28;7793352;32;40003;-88
2023/04/13 03:00:29;;;;;;;12.40;6.32;;;;;;;11.06;39.74;98702.91;7777092;32;37764;-87
2023/04/13 03:04:46;;;;;;;12.77;6.30;;;;;;;10.48;46.37;98704.97;7773754;32;37290;-87
2023/04/13 03:09:03;;;;;;;12.05;6.12;;;;;;;10.58;45.19;98705.94;7772502;32;39398;-88
2023/04/13 03:13:20;;;;;;;12.10;6.18;;;;;;;10.52;43.90;98707.94;7792584;32;40833;-87
2023/04/13 03:17:40;;;;;;;11.38;5.47;;;;;;;10.66;44.56;98700.59;7790294;32;37905;-87
2023/04/13 03:21:56;;;;;;;11.70;5.60;;;;;;;10.93;42.79;98692.78;7774751;32;38059;-87
2023/04/13 03:26:13;;;;;;;12.65;5.97;;;;;;;11.15;39.35;98697.53;7767183;32;40076;-86
2023/04/13 03:30:29;;;;;;;11.32;5.80;;;;;;;11.12;39.57;98690.75;7766172;32;39963;-86
2023/04/13 03:34:45;;;;;;;11.82;5.87;;;;;;;11.22;39.35;98685.09;7765873;32;37611;-87
2023/04/13 03:39:02;;;;;;;10.90;5.72;;;;;;;11.12;39.23;98682.56;7780960;32;36879;-87
2023/04/13 03:43:18;;;;;;;10.63;5.30;;;;;;;10.95;39.52;98682.37;7792446;32;40182;-87
2023/04/13 03:47:34;;;;;;;9.60;5.37;;;;;;;10.95;39.78;98688.66;7771765;32;40880;-87
2023/04/13 03:51:50;;;;;;;10.35;5.05;;;;;;;11.00;39.43;98679.53;7770954;32;38023;-87
2023/04/13 03:56:07;;;;;;;11.90;5.47;;;;;;;10.95;39.35;98696.81;7787054;32;37314;-87
2023/04/13 04:00:23;;;;;;;10.63;4.82;;;;;;;10.74;40.09;98706.47;7790725;32;40173;-86
2023/04/13 04:04:39;;;;;;;9.63;5.07;;;;;;;10.70;40.03;98700.81;7786002;32;39596;-87
2023/04/13 04:08:56;;;;;;;9.73;4.57;;;;;;;10.85;40.23;98703.25;7764677;32;37572;-87
2023/04/13 04:13:12;;;;;;;11.45;4.85;;;;;;;10.93;40.83;98698.22;7775399;32;37089;-86
2023/04/13 04:17:28;;;;;;;12.37;4.55;;;;;;;11.04;40.53;98696.94;7790845;32;40041;-87
2023/04/13 04:21:45;;;;;;;10.60;5.12;;;;;;;10.92;40.83;98694.69;7782589;32;39980;-87
2023/04/13 04:26:03;;;;;;;15.60;4.80;;;;;;;10.83;40.76;98694.59;7764795;32;37552;-87
2023/04/13 04:30:20;;;;;;;7.57;4.62;;;;;;;10.84;40.83;98696.19;7778551;32;37190;-88
2023/04/13 04:34:37;;;;;;;11.43;5.80;;;;;;;10.94;40.09;98702.56;7763797;32;39374;-86
2023/04/13 04:39:01;;;;;;;8.98;5.05;;;;;;;10.88;39.89;98708.13;7763797;32;41217;-88
2023/04/13 04:43:18;;;;;;;11.05;4.97;;;;;;;11.02;40.26;98715.50;7775230;32;38925;-87
2023/04/13 04:47:40;;;;;;;8.63;4.47;;;;;;;11.21;40.08;98702.59;7784674;32;36759;-87
2023/04/13 04:51:57;;;;;;;10.38;4.95;;;;;;;11.11;40.80;98694.62;7763306;32;40044;-87
2023/04/13 04:56:13;;;;;;;12.27;5.03;;;;;;;11.07;40.76;98699.03;7788733;32;41468;-87
2023/04/13 05:00:30;;;;;;;10.05;5.37;;;;;;;11.17;40.89;98698.84;7787215;32;38378;-87
2023/04/13 05:04:46;;;;;;;9.60;4.97;;;;;;;10.95;41.34;98702.28;7778231;32;36760;-87
2023/04/13 05:09:03;;;;;;;9.90;5.10;;;;;;;11.10;41.26;98693.00;7766907;32;40007;-86
2023/04/13 05:13:20;;;;;;;9.98;4.95;;;;;;;11.05;41.89;98698.53;7766407;32;40509;-85
2023/04/13 05:17:36;;;;;;;12.70;5.95;;;;;;;11.09;41.95;98703.09;7789438;32;36000;-87
2023/04/13 05:21:53;;;;;;;12.75;6.07;;;;;;;11.39;41.07;98700.06;7791037;32;38097;-86
2023/04/13 05:26:11;;;;;;;11.90;5.68;;;;;;;11.32;41.39;98707.88;7765640;32;39419;-86
2023/04/13 05:30:27;;;;;;;12.63;5.95;;;;;;;11.23;41.65;98714.03;7779801;32;40835;-85
2023/04/13 05:34:43;;;;;;;14.43;5.87;;;;;;;11.27;41.88;98708.75;7767078;32;37914;-86
2023/04/13 05:39:01;;;;;;;13.30;6.25;;;;;;;11.37;41.61;98708.56;7788330;32;37803;-86
2023/04/13 05:43:18;;;;;;;13.55;5.72;;;;;;;11.44;41.40;98713.63;7773026;32;39815;-73
2023/04/13 05:47:38;;;;;;;10.77;5.05;;;;;;;11.63;46.64;98708.84;7774493;32;38657;-79
2023/04/13 05:51:55;;;;;;;10.55;5.50;;;;;;;11.50;43.70;98714.31;7793197;32;37793;-79
2023/04/13 05:56:11;;;;;;;12.37;5.65;;;;;;;11.74;42.38;98716.81;7787344;32;37702;-79
2023/04/13 06:00:27;;;;;;;12.10;6.03;;;;;;;11.93;40.67;98712.06;7765797;32;39371;-87
2023/04/13 06:04:44;;;;;;;13.10;5.87;;;;;;;12.07;39.81;98708.50;7766005;32;39971;-88
2023/04/13 06:09:00;;;;;;;11.02;5.40;;;;;;;12.15;39.67;98710.50;7768545;32;37776;-89
2023/04/13 06:13:17;;;;;;;11.55;5.40;;;;;;;12.24;39.35;98705.91;7765809;32;37252;-89
2023/04/13 06:17:33;;;;;;;11.07;5.15;;;;;;;12.31;38.83;98714.47;7756701;32;39328;-88
2023/04/13 06:21:49;;;;;;;12.20;5.60;;;;;;;12.40;38.53;98707.16;7746081;32;39756;-90
2023/04/13 06:26:07;;;;;;;9.68;5.57;;;;;;;12.58;38.31;98718.22;7748228;32;39578;-92
2023/04/13 06:30:24;;;;;;;12.10;5.60;;;;;;;12.93;37.88;98702.81;7744943;32;36684;-89
2023/04/13 06:34:40;;;;;;;9.50;4.95;;;;;;;13.29;37.61;98712.00;7740379;32;39496;-88
2023/04/13 06:38:56;;;;;;;8.98;4.70;;;;;;;13.83;36.80;98701.72;7741384;32;40957;-73
2023/04/13 06:43:13;;;;;;;9.50;4.97;;;;;;;13.86;36.12;98705.75;7774149;32;37979;-89
2023/04/13 06:47:44;;;;;;;11.15;4.90;;;;;;;13.82;36.05;98716.53;7770608;32;37746;-87
2023/04/13 06:52:02;;;;;;;11.77;5.03;;;;;;;14.13;35.37;98715.63;7774537;32;41163;-88
2023/04/13 06:56:18;;;;;;;11.77;5.10;;;;;;;14.10;34.94;98727.22;7753847;32;40992;-89
2023/04/13 07:00:34;;;;;;;10.85;5.03;;;;;;;14.18;35.38;98718.19;7741515;32;38931;-89
2023/04/13 07:04:51;;;;;;;10.15;5.60;;;;;;;14.44;36.04;98720.13;7753485;32;37166;-90
2023/04/13 07:09:07;;;;;;;9.55;5.25;;;;;;;14.52;37.27;98716.59;7757280;32;39391;-88
2023/04/13 07:13:25;;;;;;;7.95;4.43;;;;;;;14.43;36.95;98724.78;7747823;32;39565;-88
2023/04/13 07:17:41;;;;;;;9.02;4.60;;;;;;;14.58;35.67;98720.78;7752210;32;38082;-89
2023/04/13 07:22:00;;;;;;;12.82;5.95;;;;;;;14.56;35.89;98727.72;7749567;32;37090;-89
2023/04/13 07:26:17;;;;;;;13.40;5.60;;;;;;;14.26;38.06;98738.50;7747161;32;39433;-91
2023/04/13 07:30:33;;;;;;;9.90;4.72;;;;;;;14.80;37.04;98738.19;7788729;32;40062;-90
2023/04/13 07:34:49;;;;;;;9.45;5.28;;;;;;;14.81;36.28;98729.66;7777719;32;38363;-88
2023/04/13 07:39:07;;;;;;;9.07;4.93;;;;;;;15.08;36.92;98733.13;7748212;32;37232;-89
2023/04/13 07:43:25;;;;;;;11.20;5.68;;;;;;;15.25;36.21;98725.97;7750552;32;38292;-89
2023/04/13 07:47:41;;;;;;;9.25;4.87;;;;;;;15.60;36.40;98729.34;7746974;32;40310;-89
2023/04/13 07:51:59;;;;;;;10.88;5.15;;;;;;;15.87;36.35;98727.31;7749251;32;37640;-89
2023/04/13 07:56:15;;;;;;;9.68;4.82;;;;;;;16.12;35.68;98731.81;7740071;32;37159;-90
2023/04/13 08:00:31;;;;;;;13.98;4.78;;;;;;;16.31;35.10;98742.34;7749444;32;40547;-91
2023/04/13 08:04:48;;;;;;;9.65;4.70;;;;;;;16.36;34.67;98740.53;7750323;32;39895;-91
2023/04/13 08:09:05;;;;;;;9.13;4.90;;;;;;;16.38;34.10;98741.00;7617650;32;4278176;-91
2023/04/13 08:13:22;;;;;;;11.32;5.53;;;;;;;16.33;33.56;98742.84;7749896;32;40202;-90
2023/04/13 08:17:38;;;;;;;10.50;5.43;;;;;;;16.43;33.20;98740.81;7736157;32;40862;-89
2023/04/13 08:21:56;;;;;;;10.23;4.55;;;;;;;16.78;33.55;98741.31;7749009;32;38664;-90
2023/04/13 08:26:19;;;;;;;9.52;5.18;;;;;;;17.06;32.40;98732.47;7748644;32;38086;-91
2023/04/13 08:30:36;;;;;;;13.60;5.12;;;;;;;16.98;32.88;98742.41;7750429;32;39140;-90
2023/04/13 08:34:53;;;;;;;9.13;4.57;;;;;;;16.98;31.24;98738.88;7747880;32;40345;-91
2023/04/13 08:39:10;;;;;;;9.75;4.60;;;;;;;17.52;32.07;98740.66;7750369;32;37918;-91
2023/04/13 08:43:27;;;;;;;10.75;5.22;;;;;;;17.30;31.71;98755.69;7742340;32;36973;-91
2023/04/13 08:47:44;;;;;;;8.75;4.20;;;;;;;17.45;31.25;98749.50;7736667;32;38678;-88
2023/04/13 08:52:03;;;;;;;8.35;4.28;;;;;;;17.48;29.56;98748.03;7747345;32;39859;-88
2023/04/13 08:56:21;;;;;;;7.90;3.87;;;;;;;17.52;31.87;98746.19;7763185;32;38815;-90
2023/04/13 09:00:53;;;;;;;8.48;3.78;;;;;;;17.79;29.12;98739.19;7763503;32;36975;-89
2023/04/13 09:05:14;;;;;;;10.10;3.87;;;;;;;17.25;27.66;98746.50;7764539;32;39448;-92
2023/04/13 09:09:35;;;;;;;9.40;4.00;;;;;;;17.51;27.91;98744.59;7762321;32;40781;-82
2023/04/13 09:13:51;;;;;;;11.98;4.55;;;;;;;17.24;37.10;98747.62;7763646;32;38610;-85
2023/04/13 09:18:11;;;;;;;7.53;3.67;;;;;;;17.26;29.53;98739.88;7763357;32;37117;-85
2023/04/13 09:22:28;;;;;;;7.62;3.37;;;;;;;17.09;29.04;98729.03;7762325;32;39362;-86
2023/04/13 09:26:46;;;;;;;7.45;3.00;;;;;;;17.84;29.41;98723.22;7763460;32;40740;-85
2023/04/13 09:31:04;;;;;;;7.43;2.72;;;;;;;17.74;29.30;98722.88;7761993;32;37894;-85
2023/04/13 09:35:21;;;;;;;7.82;2.75;;;;;;;17.66;28.54;98724.62;7761957;32;37074;-84
2023/04/13 09:39:37;;;;;;;10.00;3.35;;;;;;;17.80;26.65;98718.75;7763012;32;40242;-84
2023/04/13 09:43:55;;;;;;;6.62;3.00;;;;;;;17.64;27.75;98727.72;7743215;32;39757;-84
2023/04/13 09:48:21;;;;;;;8.40;2.95;;;;;;;17.49;26.45;98725.66;7737102;32;38489;-84
2023/04/13 09:52:40;;;;;;;11.48;2.97;;;;;;;17.57;27.39;98724.72;7757714;32;36783;-84
2023/04/13 09:56:56;;;;;;;10.88;2.90;;;;;;;17.31;26.47;98733.31;7759511;32;39152;-84
2023/04/13 10:01:16;;;;;;;7.97;3.22;;;;;;;17.33;26.80;98725.50;7747273;32;40225;-78
2023/04/13 10:05:33;;;;;;;6.05;3.22;;;;;;;17.12;27.67;98731.09;7761537;32;38139;-79
2023/04/13 10:10:13;;;;;;;6.12;3.20;;;;;;;17.02;28.60;98734.28;7747752;32;37012;-78
2023/04/13 10:14:35;;;;;;;5.90;2.53;;;;;;;17.15;27.78;98727.66;7749633;32;39407;-79
2023/04/13 10:19:01;;;;;;;10.93;3.05;;;;;;;17.42;29.12;98720.69;7747798;32;40003;-85
2023/04/13 10:23:19;;;;;;;10.02;3.05;;;;;;;17.76;28.39;98726.88;7747252;32;38771;-84
2023/04/13 10:27:37;;;;;;;7.10;3.58;;;;;;;17.61;27.95;98731.16;7747526;32;37167;-84
2023/04/13 10:31:55;;;;;;;8.25;3.45;;;;;;;17.59;28.07;98727.13;7747317;32;39422;-86
2023/04/13 10:36:12;;;;;;;7.55;3.08;;;;;;;17.59;29.18;98730.69;7748484;32;40704;-86
2023/04/13 10:40:28;;;;;;;6.53;2.90;;;;;;;17.55;30.33;98728.97;7750742;32;37960;-86
2023/04/13 10:44:46;;;;;;;6.12;3.00;;;;;;;17.75;31.04;98719.00;7737186;32;37151;-83
2023/04/13 10:49:03;;;;;;;7.37;3.22;;;;;;;17.58;31.28;98720.81;7747608;32;40012;-82
2023/04/13 10:53:24;;;;;;;10.35;3.87;;;;;;;17.74;30.73;98722.88;7746710;32;40015;-81
2023/04/13 10:57:41;;;;;;;9.60;3.55;;;;;;;17.78;30.77;98729.31;7759769;32;38124;-77
2023/04/13 11:01:58;;;;;;;7.95;3.50;;;;;;;18.09;31.66;98719.63;7737634;32;36825;-77
2023/04/13 11:06:15;;;;;;;7.20;3.40;;;;;;;18.13;31.17;98710.34;7737844;32;40100;-77
2023/04/13 11:10:31;;;;;;;8.10;3.08;;;;;;;18.38;31.18;98705.56;7737369;32;40016;-78
2023/04/13 11:14:49;;;;;;;7.62;2.85;;;;;;;18.38;29.32;98700.03;7738682;32;38461;-82
2023/04/13 11:19:05;;;;;;;5.90;3.05;;;;;;;18.64;27.33;98697.97;7738618;32;37817;-83
2023/04/13 11:23:24;;;;;;;8.20;3.55;;;;;;;18.73;28.16;98696.66;7737398;32;40079;-82
2023/04/13 11:27:41;;;;;;;7.82;3.62;;;;;;;19.13;26.51;98689.44;7739794;32;39878;-82
2023/04/13 11:31:57;;;;;;;11.60;3.17;;;;;;;18.57;26.48;98702.16;7738449;32;38857;-82
2023/04/13 11:36:15;;;;;;;6.60;3.45;;;;;;;18.66;26.86;98687.38;7738361;32;36794;-82
2023/04/13 11:40:32;;;;;;;10.18;3.33;;;;;;;18.80;27.99;98690.53;7738326;32;39862;-82
2023/04/13 11:44:49;;;;;;;7.85;3.35;;;;;;;19.10;26.25;98679.88;7737028;32;39957;-82
2023/04/13 11:49:06;;;;;;;5.55;2.70;;;;;;;18.85;24.82;98681.19;7735601;32;37826;-82
2023/04/13 11:53:24;;;;;;;6.47;2.83;;;;;;;19.14;25.33;98674.44;7735247;32;37777;-82
2023/04/13 11:57:41;;;;;;;9.23;3.42;;;;;;;18.62;24.86;98667.94;7735118;32;40028;-82
2023/04/13 12:01:57;;;;;;;10.90;3.42;;;;;;;18.74;24.96;98665.13;7736353;32;40740;-82
2023/04/13 12:06:21;;;;;;;6.80;2.90;;;;;;;18.93;24.90;98658.16;7737844;32;37978;-82
2023/04/13 12:10:40;;;;;;;6.00;2.70;;;;;;;19.15;24.79;98642.91;7736282;32;37863;-82
2023/04/13 12:15:24;;;;;;;6.47;2.85;;;;;;;19.06;24.08;98651.37;7737580;32;39573;-82
2023/04/13 12:19:59;;;;;;;9.48;2.95;;;;;;;18.27;25.71;98654.78;7737882;32;40807;-82
2023/04/13 12:24:18;;;;;;;9.05;4.20;;;;;;;18.35;26.53;98641.97;7737822;32;37533;-82
2023/04/13 12:28:36;;;;;;;6.55;3.05;;;;;;;17.68;30.88;98658.09;7737705;32;37941;-82
2023/04/13 12:32:54;;;;;;;8.07;3.83;;;;;;;17.68;32.06;98660.84;7737713;32;39449;-82
2023/04/13 12:37:11;;;;;;;11.10;4.70;;;;;;;17.38;33.70;98658.38;7737626;32;39383;-82
2023/04/13 12:41:27;;;;;;;9.98;4.40;;;;;;;17.41;35.13;98668.69;7737505;32;38731;-82
2023/04/13 12:45:43;;;;;;;8.82;3.97;;;;;;;17.26;37.09;98660.00;7737439;32;37211;-82
2023/04/13 12:49:59;;;;;;;17.73;4.68;;;;;;;17.24;37.80;98648.50;7737496;32;39168;-82
2023/04/13 12:54:16;;;;;;;16.52;4.75;;;;;;;17.35;38.49;98637.84;7737250;32;40567;-82
2023/04/13 12:58:34;;;;;;;8.65;4.45;;;;;;;17.31;39.30;98649.88;7736983;32;38069;-82
2023/04/13 13:02:53;;;;;;;9.10;4.87;;;;;;;17.80;38.40;98638.81;7736000;32;37870;-82
2023/04/13 13:07:27;;;;;;;9.23;4.62;;;;;;;17.29;39.10;98647.47;7737181;32;40121;-82
2023/04/13 13:11:44;;;;;;;8.38;4.35;;;;;;;17.11;39.32;98648.81;7736674;32;39858;-82
2023/04/13 13:16:00;;;;;;;12.75;5.10;;;;;;;17.50;39.13;98654.81;7736747;32;37910;-82
2023/04/13 13:20:16;;;;;;;12.35;4.47;;;;;;;17.34;38.11;98652.75;7736571;32;37251;-82
2023/04/13 13:24:33;;;;;;;12.07;4.60;;;;;;;17.33;39.71;98664.09;7737660;32;39313;-82
2023/04/13 13:28:50;;;;;;;12.70;5.03;;;;;;;17.49;39.18;98659.53;7739895;32;40834;-82
2023/04/13 13:33:07;;;;;;;8.20;4.22;;;;;;;17.58;38.16;98659.41;7739820;32;38633;-82
2023/04/13 13:37:23;;;;;;;12.95;4.93;;;;;;;17.50;38.45;98655.59;7739870;32;37902;-82
2023/04/13 13:41:39;;;;;;;12.63;5.18;;;;;;;17.24;38.41;98651.25;7738502;32;40066;-82
2023/04/13 13:45:55;;;;;;;10.23;4.40;;;;;;;17.21;38.00;98646.44;7739784;32;40729;-82
2023/04/13 13:50:12;;;;;;;9.48;4.40;;;;;;;17.23;38.59;98652.41;7739603;32;37519;-82
2023/04/13 13:54:30;;;;;;;11.93;5.15;;;;;;;17.15;39.08;98649.75;7739675;32;37330;-82
2023/04/13 13:58:48;;;;;;;13.88;4.72;;;;;;;17.11;39.48;98654.34;7738856;32;40834;-82
2023/04/13 14:03:05;;;;;;;9.48;5.22;;;;;;;16.86;40.18;98652.34;7739556;32;40795;-82
2023/04/13 14:07:22;;;;;;;14.82;6.47;;;;;;;16.43;40.83;98647.28;7739494;32;37950;-82
2023/04/13 14:11:38;;;;;;;11.23;5.20;;;;;;;16.43;41.06;98642.59;7739243;32;37881;-85
2023/04/13 14:15:55;;;;;;;11.05;4.95;;;;;;;16.39;41.81;98641.66;7739426;32;39307;-84
2023/04/13 14:20:14;;;;;;;12.95;5.60;;;;;;;16.36;41.97;98641.53;7739003;32;39916;-84
2023/04/13 14:24:35;;;;;;;10.35;5.28;;;;;;;16.29;42.17;98647.56;7739281;32;38417;-84
2023/04/13 14:28:53;;;;;;;10.98;5.20;;;;;;;15.65;43.39;98655.00;7739325;32;36555;-85
2023/04/13 14:33:12;;;;;;;12.77;5.50;;;;;;;15.39;44.22;98661.44;7739032;32;39571;-84
2023/04/13 14:37:30;;;;;;;16.30;5.93;;;;;;;15.28;44.48;98659.41;7739059;32;40008;-85
2023/04/13 14:41:46;;;;;;;11.95;6.05;;;;;;;15.06;45.35;98655.78;7741345;32;38043;-84
2023/04/13 14:46:03;;;;;;;10.52;5.37;;;;;;;14.84;46.26;98657.63;7754407;32;37247;-84
2023/04/13 14:50:21;;;;;;;9.77;5.68;;;;;;;15.13;46.41;98652.53;7750653;32;39348;-84
2023/04/13 14:54:37;;;;;;;12.60;6.03;;;;;;;14.75;48.15;98654.13;7733741;32;39910;-84
2023/04/13 14:58:54;;;;;;;11.90;6.40;;;;;;;14.41;49.24;98657.72;7744241;32;38472;-85
2023/04/13 15:03:11;;;;;;;12.20;5.85;;;;;;;14.11;50.48;98668.53;7765804;32;37858;-84
2023/04/13 15:07:28;;;;;;;12.52;5.80;;;;;;;14.08;50.74;98663.69;7750808;32;38955;-74
2023/04/13 15:11:44;;;;;;;9.23;5.35;;;;;;;14.29;50.77;98658.38;7738502;32;40932;-76
2023/04/13 15:16:01;;;;;;;9.90;5.40;;;;;;;14.38;50.25;98661.09;7738641;32;37892;-86
2023/04/13 15:20:17;;;;;;;9.48;5.50;;;;;;;14.65;49.94;98676.41;7737250;32;37186;-85
2023/04/13 15:24:33;;;;;;;10.38;4.93;;;;;;;14.06;50.71;98682.41;7738580;32;40077;-86
2023/04/13 15:28:49;;;;;;;9.50;5.18;;;;;;;13.90;51.23;98682.06;7738489;32;40270;-87
2023/04/13 15:33:05;;;;;;;11.88;5.62;;;;;;;13.96;51.55;98688.19;7738853;32;38955;-85
2023/04/13 15:37:24;;;;;;;9.25;5.43;;;;;;;13.74;52.55;98691.88;7747898;32;35579;-85
2023/04/13 15:41:40;;;;;;;12.10;5.50;;;;;;;14.07;52.00;98675.78;7746121;32;39420;-85
2023/04/13 15:45:56;;;;;;;12.05;5.72;;;;;;;13.95;52.72;98676.41;7745744;32;40136;-82
2023/04/13 15:50:12;;;;;;;11.68;5.45;;;;;;;14.04;53.06;98671.75;7767456;32;37887;-74
2023/04/13 15:54:31;;;;;;;12.00;5.62;;;;;;;14.01;53.27;98683.37;7792353;32;36359;-83
2023/04/13 15:58:48;;;;;;;12.73;5.87;;;;;;;14.39;52.51;98673.69;7785589;32;39389;-83
2023/04/13 16:03:04;;;;;;;15.13;5.62;;;;;;;14.66;52.07;98680.78;7760455;32;39335;-82
2023/04/13 16:07:21;;;;;;;10.65;5.65;;;;;;;14.61;52.04;98681.75;7764955;32;38702;-83
2023/04/13 16:11:37;;;;;;;12.23;6.00;;;;;;;14.69;51.14;98671.88;7763895;32;37113;-83
2023/04/13 16:15:57;;;;;;;10.40;5.55;;;;;;;14.25;53.10;98676.59;7764901;32;39277;-82
2023/04/13 16:20:19;;;;;;;11.93;5.37;;;;;;;14.17;53.04;98675.47;7762754;32;40586;-83
2023/04/13 16:24:36;;;;;;;10.85;6.07;;;;;;;13.92;53.43;98673.50;7764680;32;37695;-81
2023/04/13 16:28:53;;;;;;;14.90;6.70;;;;;;;13.88;54.10;98679.66;7764527;32;37827;-82
2023/04/13 16:33:09;;;;;;;13.48;6.50;;;;;;;13.42;56.16;98683.75;7763852;32;39337;-85
2023/04/13 16:37:27;;;;;;;19.20;9.07;;;;;;;13.70;55.85;98678.00;7764645;32;39397;-85
2023/04/13 16:41:43;;;;;;;13.15;7.45;;;;;;;13.83;55.24;98674.34;7763446;32;37860;-85
2023/04/13 16:46:00;;;;;;;14.45;7.65;;;;;;;13.81;55.55;98665.59;7764309;32;36760;-85
2023/04/13 16:50:16;;;;;;;14.07;7.20;;;;;;;13.72;55.94;98678.50;7763892;32;38983;-85
2023/04/13 16:54:32;;;;;;;14.43;7.60;;;;;;;13.06;58.47;98676.50;7763063;32;40553;-84
2023/04/13 16:58:48;;;;;;;15.85;8.68;;;;;;;13.53;56.83;98682.31;7762608;32;37845;-85
2023/04/13 17:03:05;;;;;;;15.18;8.45;;;;;;;13.36;58.24;98682.25;7761187;32;37038;-85
2023/04/13 17:07:22;;;;;;;16.23;9.05;;;;;;;13.26;59.12;98690.72;7762692;32;39364;-85
2023/04/13 17:11:38;;;;;;;16.10;8.63;;;;;;;13.41;59.02;98682.13;7739820;32;40823;-85
2023/04/13 17:15:55;;;;;;;17.80;10.38;;;;;;;13.60;58.76;98672.84;7753258;32;37879;-85
2023/04/13 17:20:11;;;;;;;21.55;10.32;;;;;;;13.78;57.85;98684.63;7762829;32;37946;-84
2023/04/13 17:24:30;;;;;;;15.57;8.55;;;;;;;13.82;58.08;98678.19;7762743;32;38864;-85
2023/04/13 17:28:46;;;;;;;15.60;8.80;;;;;;;13.40;59.52;98696.94;7760058;32;40757;-85
2023/04/13 17:33:03;;;;;;;16.80;8.43;;;;;;;13.11;60.16;98709.19;7735312;32;38639;-84
2023/04/13 17:37:19;;;;;;;16.45;9.38;;;;;;;13.01;60.46;98712.19;7736101;32;37945;-85
2023/04/13 17:41:36;;;;;;;15.63;9.55;;;;;;;12.74;61.28;98716.69;7735833;32;40059;-85
2023/04/13 17:45:54;;;;;;;19.02;9.85;;;;;;;12.58;62.05;98716.28;7734610;32;40149;-86
2023/04/13 17:50:11;;;;;;;14.00;9.18;;;;;;;12.86;61.31;98709.88;7738109;32;37841;-83
2023/04/13 17:54:27;;;;;;;17.75;11.02;;;;;;;12.61;62.52;98711.31;7746566;32;37203;-83
2023/04/13 17:58:44;;;;;;;18.48;11.48;;;;;;;12.66;62.39;98714.75;7747916;32;39938;-83
2023/04/13 18:03:02;;;;;;;17.02;10.02;;;;;;;12.70;62.35;98725.88;7748066;32;40038;-85
2023/04/13 18:07:20;;;;;;;22.27;12.18;;;;;;;12.75;62.13;98726.53;7747999;32;37912;-85
2023/04/13 18:11:37;;;;;;;21.85;11.80;;;;;;;12.63;62.72;98722.75;7750166;32;37180;-85
2023/04/13 18:15:53;;;;;;;21.40;12.07;;;;;;;12.49;63.13;98731.03;7740753;32;39305;-85
2023/04/13 18:20:12;;;;;;;21.33;12.13;;;;;;;12.69;62.46;98725.03;7746998;32;40585;-85
2023/04/13 18:24:28;;;;;;;21.20;12.40;;;;;;;12.82;61.75;98745.25;7745871;32;38182;-86
2023/04/13 18:28:44;;;;;;;19.12;11.90;;;;;;;12.45;63.17;98735.47;7748149;32;37942;-85
2023/04/13 18:33:03;;;;;;;24.83;12.57;;;;;;;12.39;63.52;98729.34;7747228;32;40109;-85
2023/04/13 18:37:19;;;;;;;17.02;11.55;;;;;;;12.51;62.92;98735.06;7755304;32;39430;-86
2023/04/13 18:41:36;;;;;;;21.75;12.75;;;;;;;12.82;61.82;98738.97;7764335;32;38602;-85
2023/04/13 18:45:55;;;;;;;19.65;13.05;;;;;;;12.94;61.25;98729.06;7778815;32;38357;-85
2023/04/13 18:50:12;;;;;;;17.65;11.93;;;;;;;12.88;61.55;98737.72;7765957;32;39023;-85
2023/04/13 18:54:28;;;;;;;19.48;11.65;;;;;;;12.85;61.38;98749.25;7779352;32;39782;-85
2023/04/13 18:58:45;;;;;;;23.40;12.90;;;;;;;12.74;61.56;98746.78;7792758;32;38920;-84
2023/04/13 19:03:01;;;;;;;20.67;12.65;;;;;;;13.06;60.63;98728.47;7767249;32;37274;-85
2023/04/13 19:07:18;;;;;;;20.02;12.55;;;;;;;13.03;60.50;98726.38;7765734;32;39092;-87
2023/04/13 19:11:49;;;;;;;22.92;12.75;;;;;;;12.93;60.55;98732.91;7765392;32;40020;-87
2023/04/13 19:16:06;;;;;;;19.42;12.43;;;;;;;13.09;60.08;98730.59;7765568;32;38761;-85
2023/04/13 19:20:23;;;;;;;21.12;12.02;;;;;;;12.89;60.65;98726.44;7765183;32;37243;-86
2023/04/13 19:24:40;;;;;;;19.50;12.65;;;;;;;13.19;59.67;98728.69;7780985;32;39070;-86
2023/04/13 19:28:56;;;;;;;20.30;12.75;;;;;;;13.08;59.99;98720.75;7780203;32;39519;-86
2023/04/13 19:33:12;;;;;;;20.45;12.35;;;;;;;13.25;59.32;98724.72;7749149;32;37945;-85
2023/04/13 19:37:28;;;;;;;22.37;12.80;;;;;;;13.02;60.02;98711.09;7749452;32;37012;-86
2023/04/13 19:41:45;;;;;;;24.98;12.75;;;;;;;13.12;59.86;98705.34;7750111;32;40025;-88
2023/04/13 19:46:02;;;;;;;22.65;14.75;;;;;;;13.20;59.76;98701.03;7750911;32;41226;-86
2023/04/13 19:50:21;;;;;;;23.30;14.90;;;;;;;13.01;60.89;98703.19;7741254;32;37800;-86
2023/04/13 19:54:37;;;;;;;21.48;13.68;;;;;;;13.12;60.82;98686.19;7748501;32;37342;-85
2023/04/13 19:58:53;;;;;;;24.27;12.85;;;;;;;13.13;60.82;98684.25;7749469;32;40135;-91
2023/04/13 20:03:09;;;;;;;20.17;13.05;;;;;;;13.04;61.58;98670.53;7744883;32;39976;-89